Time;durP1;ratioP1;P1;durP2;ratioP2;P2;SDS_P1;SDS_P2;PMS_P1;PMS_P2;Temp;Humidity;BMP_temperature;BMP_pressure;BME280_temperature;BME280_humidity;BME280_pressure;Samples;Min_cycle;Max_cycle;Signal;HPM_P1;HPM_P2
2020/12/21 00:02:21;;;;;;;11.88;2.92;;;6.90;99.90;;;;;;5033629;28;20029;-39
2020/12/21 00:04:47;;;;;;;13.50;2.90;;;6.90;99.90;;;;;;5048884;28;20040;-41
2020/12/21 00:07:13;;;;;;;11.57;2.75;;;6.90;99.90;;;;;;5033444;28;20255;-40
2020/12/21 00:09:38;;;;;;;10.07;3.63;;;6.90;99.90;;;;;;5050603;28;20033;-41
2020/12/21 00:12:04;;;;;;;16.02;3.72;;;6.90;99.90;;;;;;5036939;28;20454;-42
2020/12/21 00:14:31;;;;;;;12.00;3.08;;;6.90;99.90;;;;;;5050298;28;20021;-40
2020/12/21 00:16:56;;;;;;;15.68;3.78;;;6.80;99.90;;;;;;5052243;28;20500;-39
2020/12/21 00:19:24;;;;;;;13.57;3.78;;;6.80;99.90;;;;;;5047438;28;20072;-42
2020/12/21 00:21:53;;;;;;;17.63;4.18;;;6.70;99.90;;;;;;5032239;28;20053;-40
2020/12/21 00:24:20;;;;;;;21.40;3.78;;;6.80;99.90;;;;;;5048790;28;20025;-39
2020/12/21 00:26:48;;;;;;;13.32;4.15;;;6.80;99.90;;;;;;5014998;28;20056;-39
2020/12/21 00:29:14;;;;;;;14.35;3.60;;;6.80;99.90;;;;;;5030546;28;20045;-38
2020/12/21 00:31:40;;;;;;;20.33;6.28;;;6.80;99.90;;;;;;5053574;28;20119;-39
2020/12/21 00:34:06;;;;;;;16.58;4.65;;;6.70;99.90;;;;;;5050164;28;20112;-42
2020/12/21 00:36:36;;;;;;;20.92;4.75;;;6.70;99.90;;;;;;5030516;28;20021;-41
2020/12/21 00:39:04;;;;;;;20.10;4.70;;;6.70;99.90;;;;;;5051256;28;20029;-39
2020/12/21 00:41:30;;;;;;;23.13;3.42;;;6.70;99.90;;;;;;5047846;28;20109;-40
2020/12/21 00:43:55;;;;;;;17.35;4.93;;;6.70;99.90;;;;;;5048894;28;20521;-40
2020/12/21 00:46:24;;;;;;;14.15;3.75;;;6.60;99.90;;;;;;5049905;28;20104;-40
2020/12/21 00:48:51;;;;;;;19.45;5.65;;;6.50;99.90;;;;;;5049844;28;20037;-41
2020/12/21 00:51:17;;;;;;;13.15;3.60;;;6.60;99.90;;;;;;5049823;28;20037;-39
2020/12/21 00:53:44;;;;;;;15.88;4.10;;;6.50;99.90;;;;;;5032723;28;20037;-43
2020/12/21 00:56:10;;;;;;;16.23;4.32;;;6.60;99.90;;;;;;5048495;28;20060;-39
2020/12/21 00:58:37;;;;;;;12.35;3.38;;;6.60;99.90;;;;;;5050867;28;20061;-41
2020/12/21 01:01:09;;;;;;;15.20;4.00;;;6.60;99.90;;;;;;5049533;28;20036;-41
2020/12/21 01:03:35;;;;;;;17.90;4.22;;;6.70;99.90;;;;;;5036910;28;20056;-38
2020/12/21 01:06:00;;;;;;;18.98;4.95;;;6.60;99.90;;;;;;5030898;28;20090;-40
2020/12/21 01:08:26;;;;;;;20.23;3.85;;;6.60;99.90;;;;;;5050359;28;20386;-39
2020/12/21 01:10:52;;;;;;;18.83;3.97;;;6.50;99.90;;;;;;5047961;28;20033;-40
2020/12/21 01:13:17;;;;;;;19.65;4.68;;;6.50;99.90;;;;;;5050518;28;20437;-41
2020/12/21 01:15:43;;;;;;;20.98;5.05;;;6.60;99.90;;;;;;5044262;28;20068;-39
2020/12/21 01:18:09;;;;;;;19.85;4.10;;;6.50;99.90;;;;;;5049068;28;20083;-38
2020/12/21 01:20:35;;;;;;;21.50;4.45;;;6.50;99.90;;;;;;5047928;28;20367;-39
2020/12/21 01:23:01;;;;;;;14.13;2.75;;;6.50;99.90;;;;;;5054217;28;20056;-39
2020/12/21 01:25:27;;;;;;;17.05;3.40;;;6.50;99.90;;;;;;5053715;28;20124;-40
2020/12/21 01:27:52;;;;;;;13.73;3.83;;;6.50;99.90;;;;;;5053391;28;20037;-39
2020/12/21 01:30:18;;;;;;;12.60;3.50;;;6.40;99.90;;;;;;5052605;28;20043;-42
2020/12/21 01:32:43;;;;;;;8.88;3.33;;;6.40;99.90;;;;;;5053791;28;20474;-41
2020/12/21 01:35:09;;;;;;;15.55;4.28;;;6.40;99.90;;;;;;5051579;28;20033;-37
2020/12/21 01:37:34;;;;;;;21.02;4.45;;;6.30;99.90;;;;;;5053134;28;20036;-40
2020/12/21 01:40:02;;;;;;;10.43;3.15;;;6.30;99.90;;;;;;5052624;28;20072;-40
2020/12/21 01:42:28;;;;;;;13.95;3.67;;;6.30;99.90;;;;;;5052947;28;20070;-40
2020/12/21 01:44:53;;;;;;;18.25;4.07;;;6.30;99.90;;;;;;5034993;28;20040;-41
2020/12/21 01:47:21;;;;;;;24.52;4.95;;;6.30;99.90;;;;;;5053221;28;20040;-39
2020/12/21 01:49:47;;;;;;;15.10;3.90;;;6.30;99.90;;;;;;5033484;28;20068;-43
2020/12/21 01:52:16;;;;;;;12.68;3.50;;;6.30;99.90;;;;;;5053361;28;20068;-40
2020/12/21 01:54:44;;;;;;;14.43;3.38;;;6.30;99.90;;;;;;5034869;28;20030;-39
2020/12/21 01:57:09;;;;;;;18.73;4.38;;;6.40;99.90;;;;;;5052554;28;20029;-40
2020/12/21 01:59:35;;;;;;;16.42;4.32;;;6.30;99.90;;;;;;5052376;28;20112;-39
2020/12/21 02:02:01;;;;;;;16.50;4.47;;;6.30;99.90;;;;;;5035248;28;20492;-39
2020/12/21 02:04:27;;;;;;;20.38;4.07;;;6.30;99.90;;;;;;5051713;28;20033;-40
2020/12/21 02:06:54;;;;;;;14.40;4.22;;;6.30;99.90;;;;;;5036984;28;20045;-39
2020/12/21 02:09:20;;;;;;;18.58;3.90;;;6.30;99.90;;;;;;5030644;28;20120;-40
2020/12/21 02:11:46;;;;;;;16.63;4.75;;;6.30;99.90;;;;;;5011041;28;20041;-38
2020/12/21 02:14:11;;;;;;;19.38;5.68;;;6.30;99.90;;;;;;5032858;28;20469;-39
2020/12/21 02:16:37;;;;;;;20.75;4.97;;;6.30;99.90;;;;;;5044211;28;20473;-40
2020/12/21 02:19:06;;;;;;;11.07;3.60;;;6.30;99.90;;;;;;5050860;28;20033;-39
2020/12/21 02:21:31;;;;;;;15.48;4.13;;;6.30;99.90;;;;;;5042983;28;20041;-40
2020/12/21 02:23:57;;;;;;;14.63;4.50;;;6.30;99.90;;;;;;5052722;28;20406;-39
2020/12/21 02:26:23;;;;;;;12.88;4.80;;;6.30;99.90;;;;;;5051952;28;20120;-41
2020/12/21 02:28:53;;;;;;;17.80;4.15;;;6.20;99.90;;;;;;5050616;28;20049;-41
2020/12/21 02:31:19;;;;;;;18.73;3.95;;;6.20;99.90;;;;;;5050047;28;20060;-39
2020/12/21 02:33:45;;;;;;;10.23;3.40;;;6.20;99.90;;;;;;5050068;28;20438;-40
2020/12/21 02:36:11;;;;;;;14.38;3.58;;;6.20;99.90;;;;;;5048581;28;20478;-41
2020/12/21 02:38:37;;;;;;;15.48;5.35;;;6.20;99.90;;;;;;5051695;28;20048;-40
2020/12/21 02:41:03;;;;;;;19.20;4.75;;;6.10;99.90;;;;;;5051432;28;20124;-40
2020/12/21 02:43:29;;;;;;;22.92;4.30;;;6.10;99.90;;;;;;5051936;28;20501;-43
2020/12/21 02:45:54;;;;;;;15.70;4.03;;;6.10;99.90;;;;;;5050193;28;20021;-43
2020/12/21 02:48:20;;;;;;;11.32;3.85;;;6.10;99.90;;;;;;5050655;28;20409;-42
2020/12/21 02:50:47;;;;;;;16.10;4.03;;;6.10;99.90;;;;;;5032622;28;20153;-40
2020/12/21 02:53:18;;;;;;;19.10;3.88;;;6.10;99.90;;;;;;5052081;28;20461;-41
2020/12/21 02:55:46;;;;;;;10.38;4.32;;;6.10;99.90;;;;;;5042675;28;20082;-44
2020/12/21 02:58:13;;;;;;;15.82;3.95;;;6.10;99.90;;;;;;5050519;28;20478;-42
2020/12/21 03:00:39;;;;;;;19.02;3.90;;;6.10;99.90;;;;;;5051356;28;20493;-40
2020/12/21 03:03:06;;;;;;;13.60;4.00;;;6.10;99.90;;;;;;5050593;28;20033;-40
2020/12/21 03:05:32;;;;;;;14.10;4.40;;;6.10;99.90;;;;;;5050731;28;20025;-39
2020/12/21 03:07:58;;;;;;;15.50;5.00;;;6.10;99.90;;;;;;5049675;28;20079;-41
2020/12/21 03:10:24;;;;;;;15.27;3.42;;;6.00;99.90;;;;;;5051460;28;20535;-40
2020/12/21 03:12:49;;;;;;;20.45;4.97;;;6.10;99.90;;;;;;5050923;28;20029;-41
2020/12/21 03:15:15;;;;;;;12.85;4.00;;;6.00;99.90;;;;;;5049744;28;20104;-40
2020/12/21 03:17:40;;;;;;;11.95;3.67;;;6.00;99.90;;;;;;5032091;28;20048;-41
2020/12/21 03:20:06;;;;;;;14.88;3.33;;;6.00;99.90;;;;;;5051064;28;20106;-40
2020/12/21 03:22:31;;;;;;;25.20;4.55;;;6.00;99.90;;;;;;5034981;28;20047;-39
2020/12/21 03:24:57;;;;;;;14.50;3.45;;;6.00;99.90;;;;;;5051230;28;20025;-42
2020/12/21 03:27:26;;;;;;;14.82;3.45;;;6.10;99.90;;;;;;5051125;28;20075;-38
2020/12/21 03:29:52;;;;;;;14.73;3.60;;;6.10;99.90;;;;;;5050997;28;20053;-43
2020/12/21 03:32:17;;;;;;;12.10;4.40;;;6.10;99.90;;;;;;5051325;28;20079;-41
2020/12/21 03:34:43;;;;;;;17.92;4.00;;;6.10;99.90;;;;;;5049993;28;20120;-37
2020/12/21 03:37:09;;;;;;;11.05;3.15;;;6.10;99.90;;;;;;5051100;28;20033;-40
2020/12/21 03:39:34;;;;;;;15.43;4.00;;;6.10;99.90;;;;;;5049814;28;20043;-38
2020/12/21 03:42:00;;;;;;;18.52;4.15;;;6.10;99.90;;;;;;5050991;28;20039;-41
2020/12/21 03:44:26;;;;;;;12.50;4.10;;;6.10;99.90;;;;;;5043994;28;20485;-40
2020/12/21 03:46:51;;;;;;;13.43;3.97;;;6.10;99.90;;;;;;5051094;28;20033;-42
2020/12/21 03:49:17;;;;;;;27.08;3.72;;;6.10;99.90;;;;;;5048599;28;20033;-41
2020/12/21 03:51:43;;;;;;;11.23;3.67;;;6.10;99.90;;;;;;5049267;28;20029;-40
2020/12/21 03:54:08;;;;;;;19.33;4.28;;;6.10;99.90;;;;;;5050199;28;20093;-41
2020/12/21 03:56:34;;;;;;;13.82;3.60;;;6.10;99.90;;;;;;5049288;28;20033;-39
2020/12/21 03:58:59;;;;;;;9.55;3.45;;;6.10;99.90;;;;;;5050962;28;20036;-40
2020/12/21 04:01:25;;;;;;;16.15;3.88;;;6.10;99.90;;;;;;5049836;28;20035;-42
2020/12/21 04:03:50;;;;;;;20.25;4.25;;;6.10;99.90;;;;;;5047819;28;20036;-43
2020/12/21 04:06:18;;;;;;;14.73;3.55;;;6.10;99.90;;;;;;5049464;28;20152;-42
2020/12/21 04:08:43;;;;;;;23.15;3.83;;;6.10;99.90;;;;;;5050764;28;20036;-44
2020/12/21 04:11:09;;;;;;;15.10;3.55;;;6.00;99.90;;;;;;5050106;28;20393;-39
2020/12/21 04:13:35;;;;;;;15.68;3.65;;;6.10;99.90;;;;;;5049811;28;20033;-43
2020/12/21 04:16:00;;;;;;;12.25;4.28;;;6.10;99.90;;;;;;5046781;28;20469;-41
2020/12/21 04:18:26;;;;;;;15.63;4.13;;;6.10;99.90;;;;;;5050218;28;20041;-41
2020/12/21 04:20:51;;;;;;;13.07;3.83;;;6.10;99.90;;;;;;5048009;28;20033;-42
2020/12/21 04:23:17;;;;;;;16.80;4.80;;;6.10;99.90;;;;;;5051045;28;20474;-40
2020/12/21 04:25:42;;;;;;;20.75;4.90;;;6.10;99.90;;;;;;5049270;28;20108;-40
2020/12/21 04:28:08;;;;;;;17.33;5.32;;;6.20;99.90;;;;;;5051048;28;20041;-38
2020/12/21 04:30:33;;;;;;;18.88;4.40;;;6.20;99.90;;;;;;5050336;28;20083;-40
2020/12/21 04:32:59;;;;;;;13.82;4.38;;;6.20;99.90;;;;;;5031167;28;20064;-41
2020/12/21 04:35:25;;;;;;;18.33;4.85;;;6.20;99.90;;;;;;5029742;28;20434;-40
2020/12/21 04:37:50;;;;;;;21.23;5.68;;;6.20;99.90;;;;;;5050473;28;20108;-40
2020/12/21 04:40:17;;;;;;;21.27;5.95;;;6.20;99.90;;;;;;5048099;28;20087;-40
2020/12/21 04:42:55;;;;;;;18.85;5.65;;;6.20;99.90;;;;;;5050598;28;20064;-41
2020/12/21 04:45:21;;;;;;;30.80;7.82;;;6.20;99.90;;;;;;5048623;28;20108;-39
2020/12/21 04:47:47;;;;;;;19.30;7.55;;;6.20;99.90;;;;;;5049069;28;20112;-41
2020/12/21 04:50:17;;;;;;;20.20;6.03;;;6.20;99.90;;;;;;5048324;28;20029;-39
2020/12/21 04:52:52;;;;;;;21.00;6.07;;;6.20;99.90;;;;;;5050179;28;20102;-40
2020/12/21 04:55:20;;;;;;;14.45;5.32;;;6.20;99.90;;;;;;5050146;28;20056;-40
2020/12/21 04:57:59;;;;;;;18.52;7.63;;;6.30;99.90;;;;;;5052800;28;20545;-40
2020/12/21 05:00:27;;;;;;;20.30;7.60;;;6.30;99.90;;;;;;5036064;28;20053;-42
2020/12/21 05:02:53;;;;;;;23.90;8.15;;;6.30;99.90;;;;;;5053405;28;20033;-42
2020/12/21 05:05:31;;;;;;;21.95;8.93;;;6.30;99.90;;;;;;5050918;28;20527;-40
2020/12/21 05:07:58;;;;;;;22.13;8.52;;;6.30;99.90;;;;;;5052768;28;20025;-41
2020/12/21 05:10:24;;;;;;;17.38;7.47;;;6.40;99.90;;;;;;5053434;28;20040;-39
2020/12/21 05:13:00;;;;;;;23.08;8.10;;;6.40;99.90;;;;;;5054985;28;20025;-40
2020/12/21 05:15:26;;;;;;;21.02;8.95;;;6.40;99.90;;;;;;5044631;28;20017;-40
2020/12/21 05:18:10;;;;;;;20.38;6.57;;;6.40;99.90;;;;;;5052315;28;21319;-41
2020/12/21 05:20:40;;;;;;;19.10;7.30;;;6.40;99.90;;;;;;5051787;28;20061;-39
2020/12/21 05:23:15;;;;;;;18.60;8.43;;;6.40;99.90;;;;;;5036874;28;20067;-40
2020/12/21 05:25:41;;;;;;;15.18;6.85;;;6.50;99.90;;;;;;5052893;28;20481;-38
2020/12/21 05:28:14;;;;;;;19.45;6.85;;;6.50;99.90;;;;;;5054935;28;20119;-40
2020/12/21 05:30:51;;;;;;;24.52;8.75;;;6.50;99.90;;;;;;5053244;28;20405;-38
2020/12/21 05:33:17;;;;;;;21.90;7.82;;;6.60;99.90;;;;;;5053139;28;20033;-40
2020/12/21 05:35:43;;;;;;;33.05;8.32;;;6.60;99.90;;;;;;5053109;28;20033;-46
2020/12/21 05:38:22;;;;;;;21.08;7.88;;;6.60;99.90;;;;;;5052334;28;20029;-40
2020/12/21 05:40:47;;;;;;;24.48;7.43;;;6.60;99.90;;;;;;5046081;28;20044;-38
2020/12/21 05:43:29;;;;;;;19.13;7.53;;;6.60;99.90;;;;;;5054148;28;20065;-40
2020/12/21 05:46:28;;;;;;;21.48;7.95;;;6.60;99.90;;;;;;5051876;28;20060;-40
2020/12/21 05:48:56;;;;;;;13.88;5.68;;;6.60;99.90;;;;;;4966282;28;20436;-39
2020/12/21 05:51:33;;;;;;;19.38;7.35;;;6.70;99.90;;;;;;4971197;28;20392;-42
2020/12/21 05:54:01;;;;;;;14.68;5.45;;;6.70;99.90;;;;;;4973006;28;20557;-40
2020/12/21 05:56:31;;;;;;;20.75;7.53;;;6.70;99.90;;;;;;4970824;28;20027;-39
2020/12/21 05:58:58;;;;;;;28.02;9.30;;;6.70;99.90;;;;;;4971364;28;20070;-41
2020/12/21 06:01:24;;;;;;;25.80;7.80;;;6.70;99.90;;;;;;4970761;28;20030;-40
2020/12/21 06:03:51;;;;;;;15.45;6.07;;;6.80;99.90;;;;;;4971255;28;20307;-41
2020/12/21 06:06:25;;;;;;;19.30;6.88;;;6.80;99.90;;;;;;4954328;28;20045;-39
2020/12/21 06:08:56;;;;;;;18.55;6.80;;;6.80;99.90;;;;;;4954878;28;20449;-40
2020/12/21 06:11:23;;;;;;;27.23;6.82;;;6.80;99.90;;;;;;4970680;28;20062;-36
2020/12/21 06:14:06;;;;;;;29.60;8.70;;;6.80;99.90;;;;;;4972486;28;20027;-41
2020/12/21 06:16:35;;;;;;;18.33;6.95;;;6.80;99.90;;;;;;4969940;28;20035;-42
2020/12/21 06:19:06;;;;;;;25.70;9.63;;;6.80;99.90;;;;;;4970739;28;20054;-41
2020/12/21 06:21:38;;;;;;;18.20;6.55;;;6.80;99.90;;;;;;4970908;28;20054;-41
2020/12/21 06:24:15;;;;;;;27.52;8.10;;;6.80;99.90;;;;;;4997818;28;20041;-42
2020/12/21 06:26:40;;;;;;;26.48;7.20;;;6.90;99.90;;;;;;5051599;28;20027;-41
2020/12/21 06:29:10;;;;;;;25.77;6.57;;;6.90;99.90;;;;;;5051906;28;20033;-38
2020/12/21 06:31:44;;;;;;;20.92;7.75;;;6.90;99.90;;;;;;5034258;28;20033;-39
2020/12/21 06:34:16;;;;;;;19.70;7.28;;;6.90;99.90;;;;;;5034835;28;20393;-39
2020/12/21 06:36:42;;;;;;;22.23;7.18;;;6.90;99.90;;;;;;5031991;28;20033;-40
2020/12/21 06:39:08;;;;;;;21.90;7.35;;;6.90;99.90;;;;;;5052135;28;20029;-39
2020/12/21 06:41:35;;;;;;;20.27;7.47;;;6.90;99.90;;;;;;5050011;28;20470;-38
2020/12/21 06:44:06;;;;;;;25.92;8.05;;;6.90;99.90;;;;;;5051314;28;20470;-39
2020/12/21 06:46:34;;;;;;;21.65;9.05;;;6.90;99.90;;;;;;5050721;28;20025;-38
2020/12/21 06:49:08;;;;;;;26.33;8.77;;;6.90;99.90;;;;;;5048103;28;20040;-42
2020/12/21 06:51:35;;;;;;;27.77;9.35;;;6.90;99.90;;;;;;5047349;28;20028;-38
2020/12/21 06:54:05;;;;;;;23.80;8.27;;;7.00;99.90;;;;;;5057783;28;20040;-39
2020/12/21 06:56:31;;;;;;;18.83;9.65;;;7.00;99.90;;;;;;5056592;28;20025;-39
2020/12/21 06:58:58;;;;;;;19.92;8.52;;;6.90;99.90;;;;;;5058722;28;20385;-39
2020/12/21 07:01:26;;;;;;;21.33;7.75;;;7.00;99.90;;;;;;5057011;28;20024;-39
2020/12/21 07:03:52;;;;;;;24.17;9.70;;;7.00;99.90;;;;;;5055480;28;20689;-41
2020/12/21 07:06:18;;;;;;;19.70;8.20;;;7.00;99.90;;;;;;5055568;28;20044;-39
2020/12/21 07:08:44;;;;;;;24.15;8.38;;;7.00;99.90;;;;;;5054906;28;20037;-39
2020/12/21 07:11:21;;;;;;;22.85;9.25;;;7.00;99.90;;;;;;5032180;28;20033;-38
2020/12/21 07:13:48;;;;;;;20.55;9.13;;;7.00;99.90;;;;;;5042117;28;20118;-38
2020/12/21 07:16:16;;;;;;;23.88;7.32;;;7.00;99.90;;;;;;5032279;28;20470;-41
2020/12/21 07:18:42;;;;;;;17.65;7.35;;;7.10;99.90;;;;;;5049913;28;20112;-39
2020/12/21 07:21:09;;;;;;;26.70;11.00;;;7.00;99.90;;;;;;5049953;28;20124;-39
2020/12/21 07:23:35;;;;;;;25.15;10.73;;;7.00;99.90;;;;;;5034526;28;20120;-37
2020/12/21 07:26:01;;;;;;;18.08;9.48;;;7.00;99.90;;;;;;5049785;28;20111;-40
2020/12/21 07:28:29;;;;;;;24.85;9.30;;;7.00;99.90;;;;;;5051933;28;20108;-39
2020/12/21 07:31:12;;;;;;;12.43;5.40;;;7.10;99.90;;;;;;5050011;28;20047;-41
2020/12/21 07:33:48;;;;;;;22.77;9.23;;;7.10;99.90;;;;;;5036923;28;20048;-39
2020/12/21 07:36:14;;;;;;;20.60;10.25;;;7.10;99.90;;;;;;5044855;28;20029;-39
2020/12/21 07:38:39;;;;;;;30.65;10.27;;;7.10;99.90;;;;;;5050121;28;20332;-38
2020/12/21 07:41:05;;;;;;;20.00;11.25;;;7.10;99.90;;;;;;5049575;28;20053;-37
2020/12/21 07:43:37;;;;;;;31.30;10.70;;;7.10;99.90;;;;;;5046669;28;20028;-38
2020/12/21 07:46:05;;;;;;;30.33;12.18;;;7.10;99.90;;;;;;5048494;28;20493;-39
2020/12/21 07:48:32;;;;;;;21.98;8.32;;;7.10;99.90;;;;;;5048073;28;20036;-40
2020/12/21 07:51:02;;;;;;;23.25;9.68;;;7.10;99.90;;;;;;5045718;28;20033;-41
2020/12/21 07:53:33;;;;;;;24.77;9.43;;;7.10;99.90;;;;;;5048869;28;20039;-39
2020/12/21 07:55:59;;;;;;;27.02;10.13;;;7.10;99.90;;;;;;5013014;28;20043;-39
2020/12/21 07:58:25;;;;;;;25.40;8.07;;;7.10;99.90;;;;;;5049370;28;20036;-39
2020/12/21 08:01:00;;;;;;;17.50;7.43;;;7.10;99.90;;;;;;5046526;28;20037;-38
2020/12/21 08:03:28;;;;;;;21.83;8.70;;;7.10;99.90;;;;;;5034604;28;20033;-38
2020/12/21 08:06:13;;;;;;;25.92;10.20;;;7.20;99.90;;;;;;4999824;28;20083;-38
2020/12/21 08:08:40;;;;;;;22.92;6.53;;;7.20;99.90;;;;;;5010013;28;20037;-38
2020/12/21 08:11:12;;;;;;;28.55;10.45;;;7.20;99.90;;;;;;5037665;28;20072;-39
2020/12/21 08:13:38;;;;;;;24.95;9.45;;;7.20;99.90;;;;;;5048663;28;20056;-39
2020/12/21 08:16:08;;;;;;;19.55;10.18;;;7.20;99.90;;;;;;5048224;28;20469;-39
2020/12/21 08:18:34;;;;;;;18.48;8.23;;;7.20;99.90;;;;;;5048976;28;20440;-36
2020/12/21 08:21:00;;;;;;;23.52;9.20;;;7.20;99.90;;;;;;5047395;28;20095;-43
2020/12/21 08:23:28;;;;;;;25.55;9.38;;;7.30;99.90;;;;;;5048935;28;20041;-38
2020/12/21 08:25:54;;;;;;;23.52;10.85;;;7.20;99.90;;;;;;5047520;28;20024;-38
2020/12/21 08:28:32;;;;;;;26.48;12.00;;;7.20;99.90;;;;;;5032707;28;20401;-38
2020/12/21 08:31:12;;;;;;;28.38;9.65;;;7.30;99.90;;;;;;5045676;28;20037;-39
2020/12/21 08:33:42;;;;;;;20.85;8.57;;;7.20;99.90;;;;;;5053171;28;20449;-37
2020/12/21 08:36:20;;;;;;;22.83;7.75;;;7.20;99.90;;;;;;5051955;28;20072;-37
2020/12/21 08:38:46;;;;;;;15.63;7.30;;;7.30;99.90;;;;;;5048201;28;20075;-38
2020/12/21 08:41:12;;;;;;;27.75;10.85;;;7.30;99.90;;;;;;5052800;28;20033;-40
2020/12/21 08:43:38;;;;;;;17.98;8.75;;;7.30;99.90;;;;;;5054406;28;20033;-37
2020/12/21 08:46:08;;;;;;;26.63;10.60;;;7.30;99.90;;;;;;5053819;28;20036;-38
2020/12/21 08:48:44;;;;;;;14.70;7.28;;;7.40;99.90;;;;;;5055415;28;20021;-38
2020/12/21 08:51:10;;;;;;;18.45;7.72;;;7.40;99.90;;;;;;5052410;28;20091;-38
2020/12/21 08:53:36;;;;;;;17.73;6.93;;;7.40;99.90;;;;;;5055326;28;20029;-38
2020/12/21 08:56:12;;;;;;;18.95;5.25;;;7.40;99.90;;;;;;5051191;28;20040;-39
2020/12/21 08:58:39;;;;;;;18.15;4.57;;;7.50;99.90;;;;;;5053529;28;20416;-38
2020/12/21 09:01:05;;;;;;;17.60;6.30;;;7.50;99.90;;;;;;5053109;28;20017;-39
2020/12/21 09:03:31;;;;;;;18.23;6.20;;;7.50;99.90;;;;;;5053111;28;20021;-38
2020/12/21 09:05:57;;;;;;;15.98;5.60;;;7.50;99.90;;;;;;5052165;28;20032;-38
2020/12/21 09:08:23;;;;;;;12.27;6.00;;;7.50;99.90;;;;;;5054415;28;20044;-38
2020/12/21 09:10:48;;;;;;;15.38;6.05;;;7.60;99.90;;;;;;5053018;28;20049;-38
2020/12/21 09:13:14;;;;;;;14.68;6.15;;;7.60;99.90;;;;;;5054311;28;20484;-38
2020/12/21 09:15:40;;;;;;;11.15;4.00;;;7.60;99.90;;;;;;5052052;28;20025;-38
2020/12/21 09:18:05;;;;;;;9.95;3.28;;;7.60;99.90;;;;;;5052384;28;20414;-40
2020/12/21 09:20:31;;;;;;;20.30;7.10;;;7.60;99.90;;;;;;5050898;28;20104;-38
2020/12/21 09:22:57;;;;;;;16.30;5.63;;;7.60;99.90;;;;;;5053591;28;20057;-39
2020/12/21 09:25:22;;;;;;;14.23;5.38;;;7.60;99.90;;;;;;5054306;28;20375;-39
2020/12/21 09:27:48;;;;;;;15.65;5.07;;;7.60;99.90;;;;;;5036074;28;20090;-39
2020/12/21 09:30:14;;;;;;;11.48;5.18;;;7.60;99.90;;;;;;5047304;28;20029;-38
2020/12/21 09:32:39;;;;;;;16.20;5.25;;;7.60;99.90;;;;;;5050269;28;20079;-37
2020/12/21 09:35:05;;;;;;;21.58;4.93;;;7.70;99.90;;;;;;5051926;28;20028;-39
2020/12/21 09:37:31;;;;;;;14.05;5.18;;;7.60;99.90;;;;;;5050832;28;20021;-38
2020/12/21 09:39:56;;;;;;;14.57;5.25;;;7.70;99.90;;;;;;5048167;28;20021;-38
2020/12/21 09:42:22;;;;;;;22.58;5.47;;;7.70;99.90;;;;;;5045336;28;20021;-38
2020/12/21 09:44:50;;;;;;;8.82;3.28;;;7.60;99.90;;;;;;5057012;28;20033;-38
2020/12/21 09:47:15;;;;;;;13.52;4.15;;;7.70;99.90;;;;;;5054539;28;20024;-38
2020/12/21 09:49:41;;;;;;;13.48;4.10;;;7.60;99.90;;;;;;5051925;28;20058;-37
2020/12/21 09:52:07;;;;;;;13.30;3.40;;;7.70;99.90;;;;;;5051273;28;20047;-38
2020/12/21 09:54:32;;;;;;;15.05;4.50;;;7.70;99.90;;;;;;5044700;28;20039;-38
2020/12/21 09:56:58;;;;;;;9.13;2.40;;;7.70;99.90;;;;;;5045943;28;20029;-39
2020/12/21 09:59:23;;;;;;;9.00;1.90;;;7.70;99.90;;;;;;5045925;28;20021;-37
2020/12/21 10:01:50;;;;;;;4.68;1.77;;;7.70;99.90;;;;;;5045483;28;20032;-38
2020/12/21 10:04:15;;;;;;;10.57;3.85;;;7.70;99.90;;;;;;5027445;28;20091;-39
2020/12/21 10:06:47;;;;;;;7.20;3.05;;;7.70;99.90;;;;;;5051010;28;20049;-39
2020/12/21 10:09:13;;;;;;;10.85;3.90;;;7.70;99.90;;;;;;5045557;28;20043;-41
2020/12/21 10:11:38;;;;;;;9.57;3.75;;;7.80;99.90;;;;;;5047135;28;20132;-38
2020/12/21 10:14:04;;;;;;;5.13;2.15;;;7.80;99.90;;;;;;5049181;28;20488;-38
2020/12/21 10:16:29;;;;;;;11.65;3.53;;;7.80;99.90;;;;;;5052281;28;20533;-38
2020/12/21 10:18:55;;;;;;;10.23;3.47;;;7.80;99.90;;;;;;5045115;28;20041;-37
2020/12/21 10:21:21;;;;;;;17.65;4.32;;;7.80;99.90;;;;;;5029219;28;20045;-36
2020/12/21 10:23:47;;;;;;;13.48;2.72;;;7.80;99.90;;;;;;5030684;28;20496;-36
2020/12/21 10:26:12;;;;;;;9.68;2.85;;;7.80;99.90;;;;;;5028343;28;20122;-35
2020/12/21 10:28:38;;;;;;;6.38;1.75;;;7.80;99.90;;;;;;5037897;28;20630;-35
2020/12/21 10:31:03;;;;;;;8.95;3.08;;;7.80;99.90;;;;;;5045968;28;20083;-36
2020/12/21 10:33:29;;;;;;;14.65;4.13;;;7.80;99.90;;;;;;5046279;28;20032;-36
2020/12/21 10:35:54;;;;;;;6.40;2.13;;;7.80;99.90;;;;;;5046623;28;20052;-37
2020/12/21 10:38:20;;;;;;;10.50;2.85;;;7.80;99.90;;;;;;5045936;28;20063;-37
2020/12/21 10:40:46;;;;;;;10.15;2.63;;;7.80;99.90;;;;;;5045848;28;20044;-36
2020/12/21 10:43:11;;;;;;;5.47;2.55;;;7.80;99.90;;;;;;5026149;28;20199;-36
2020/12/21 10:45:38;;;;;;;7.68;2.38;;;7.80;99.90;;;;;;5047110;28;20055;-39
2020/12/21 10:48:05;;;;;;;9.02;2.05;;;7.80;99.90;;;;;;5046524;28;20474;-35
2020/12/21 10:50:30;;;;;;;10.05;2.00;;;7.90;99.90;;;;;;5047236;28;20037;-38
2020/12/21 10:52:56;;;;;;;7.90;1.90;;;7.80;99.90;;;;;;5028619;28;20561;-38
2020/12/21 10:55:22;;;;;;;8.18;2.40;;;7.80;99.90;;;;;;5050123;28;20112;-39
2020/12/21 10:57:48;;;;;;;4.95;1.35;;;7.80;99.90;;;;;;5051421;28;20481;-38
2020/12/21 11:00:13;;;;;;;7.32;2.22;;;7.80;99.90;;;;;;5050916;28;20474;-40
2020/12/21 11:02:39;;;;;;;7.63;2.22;;;7.80;99.90;;;;;;5050311;28;20025;-38
2020/12/21 11:05:05;;;;;;;4.90;1.80;;;7.80;99.90;;;;;;5051855;28;20504;-37
2020/12/21 11:07:31;;;;;;;10.63;2.42;;;7.80;99.90;;;;;;5048854;28;20041;-39
2020/12/21 11:09:57;;;;;;;4.68;1.90;;;7.80;99.90;;;;;;5033102;28;20169;-38
2020/12/21 11:12:23;;;;;;;11.27;3.40;;;7.80;99.90;;;;;;5049564;28;20616;-38
2020/12/21 11:14:49;;;;;;;9.38;3.13;;;7.80;99.90;;;;;;5049429;28;20533;-38
2020/12/21 11:17:15;;;;;;;9.13;2.53;;;7.80;99.90;;;;;;5026503;28;20143;-37
2020/12/21 11:19:41;;;;;;;13.70;5.13;;;7.80;99.90;;;;;;5041669;28;20033;-38
2020/12/21 11:22:06;;;;;;;6.93;2.88;;;7.80;99.90;;;;;;5041870;28;20041;-38
2020/12/21 11:24:32;;;;;;;8.35;2.97;;;7.80;99.90;;;;;;5048867;28;20025;-42
2020/12/21 11:26:58;;;;;;;9.93;1.73;;;7.80;99.90;;;;;;5047639;28;20417;-38
2020/12/21 11:29:24;;;;;;;12.43;4.22;;;7.80;99.90;;;;;;5042888;28;20158;-40
2020/12/21 11:31:49;;;;;;;10.85;3.22;;;7.70;99.90;;;;;;5032639;28;20115;-38
2020/12/21 11:34:15;;;;;;;6.60;2.70;;;7.80;99.90;;;;;;5024087;28;20715;-39
2020/12/21 11:36:44;;;;;;;8.98;3.38;;;7.70;99.90;;;;;;5042526;28;20788;-37
2020/12/21 11:39:11;;;;;;;8.80;2.70;;;7.70;99.90;;;;;;5046030;28;20041;-38
2020/12/21 11:41:36;;;;;;;8.32;3.80;;;7.80;99.90;;;;;;5049268;28;20029;-38
2020/12/21 11:44:02;;;;;;;9.43;2.67;;;7.70;99.90;;;;;;5051014;28;20078;-39
2020/12/21 11:46:29;;;;;;;8.13;2.80;;;7.70;99.90;;;;;;5049660;28;20377;-38
2020/12/21 11:48:55;;;;;;;8.68;2.80;;;7.70;99.90;;;;;;5046074;28;20038;-39
2020/12/21 11:51:21;;;;;;;19.52;3.30;;;7.70;99.90;;;;;;5046059;28;20048;-37
2020/12/21 11:53:46;;;;;;;9.15;4.15;;;7.70;99.90;;;;;;5047565;28;20116;-39
2020/12/21 11:56:19;;;;;;;14.38;3.45;;;7.70;99.90;;;;;;5050231;28;20028;-38
2020/12/21 11:58:45;;;;;;;8.27;2.53;;;7.70;99.90;;;;;;5050145;28;20029;-41
2020/12/21 12:01:11;;;;;;;5.80;2.72;;;7.70;99.90;;;;;;5049420;28;20025;-38
2020/12/21 12:03:36;;;;;;;7.95;2.95;;;7.70;99.90;;;;;;5048107;28;20051;-38
2020/12/21 12:06:03;;;;;;;13.93;4.05;;;7.70;99.90;;;;;;5047457;28;20032;-40
2020/12/21 12:08:29;;;;;;;7.38;3.50;;;7.70;99.90;;;;;;5032520;28;20082;-38
2020/12/21 12:10:54;;;;;;;10.07;4.00;;;7.70;99.90;;;;;;5049744;28;20040;-39
2020/12/21 12:13:20;;;;;;;7.55;3.30;;;7.70;99.90;;;;;;5034492;28;20127;-38
2020/12/21 12:15:45;;;;;;;9.38;4.10;;;7.70;99.90;;;;;;5043591;28;20025;-39
2020/12/21 12:18:11;;;;;;;9.68;2.35;;;7.70;99.90;;;;;;5048851;28;20041;-38
2020/12/21 12:20:37;;;;;;;8.30;3.30;;;7.70;99.90;;;;;;5047140;28;20040;-40
2020/12/21 12:23:02;;;;;;;10.75;4.93;;;7.70;99.90;;;;;;5048869;28;20053;-38
2020/12/21 12:25:28;;;;;;;12.50;4.03;;;7.70;99.90;;;;;;5046836;28;20115;-38
2020/12/21 12:27:54;;;;;;;2.28;0.90;;;7.80;99.90;;;;;;5047689;28;20033;-40
2020/12/21 12:30:19;;;;;;;12.02;4.57;;;7.70;99.90;;;;;;5030071;28;20481;-39
2020/12/21 12:32:45;;;;;;;14.18;4.18;;;7.70;99.90;;;;;;5032589;28;20386;-38
2020/12/21 12:35:10;;;;;;;6.15;2.70;;;7.70;99.90;;;;;;5048721;28;20033;-38
2020/12/21 12:37:36;;;;;;;13.90;4.30;;;7.80;99.90;;;;;;5049019;28;20116;-39
2020/12/21 12:40:02;;;;;;;8.93;3.65;;;7.80;99.90;;;;;;5050391;28;20044;-38
2020/12/21 12:42:28;;;;;;;8.25;3.55;;;7.80;99.90;;;;;;5049128;28;20037;-38
2020/12/21 12:44:54;;;;;;;8.70;3.72;;;7.80;99.90;;;;;;5050257;28;20029;-38
2020/12/21 12:47:19;;;;;;;6.53;3.20;;;7.80;99.90;;;;;;5031613;28;20081;-38
2020/12/21 12:49:45;;;;;;;7.93;3.30;;;7.90;99.90;;;;;;5048900;28;20037;-38